createdAt,value
2023-02-13T00:01:41.469Z,40.60
2023-02-13T00:04:10.604Z,42.80
2023-02-13T00:06:41.019Z,40.10
2023-02-13T00:11:40.695Z,33.20
2023-02-13T00:14:09.589Z,39.50
2023-02-13T00:16:38.589Z,42.40
2023-02-13T00:19:07.894Z,43.80
2023-02-13T00:21:37.809Z,47.40
2023-02-13T00:24:07.310Z,42.40
2023-02-13T00:26:36.933Z,37.20
2023-02-13T00:29:06.334Z,56.20
2023-02-13T00:31:35.341Z,47.80
2023-02-13T00:34:04.806Z,52.90
2023-02-13T00:36:34.965Z,52.10
2023-02-13T00:39:06.161Z,52.70
2023-02-13T00:41:36.515Z,41.50
2023-02-13T00:44:05.389Z,43.00
2023-02-13T00:46:35.453Z,43.10
2023-02-13T00:49:06.562Z,38.50
2023-02-13T00:51:36.764Z,38.90
2023-02-13T00:54:07.281Z,46.50
2023-02-13T00:56:36.482Z,46.90
2023-02-13T00:59:06.419Z,51.30
2023-02-13T01:01:35.996Z,51.70
2023-02-13T01:04:06.649Z,44.40
2023-02-13T01:06:36.004Z,42.20
2023-02-13T01:09:05.722Z,41.00
2023-02-13T01:11:35.659Z,41.70
2023-02-13T01:14:06.827Z,44.70
2023-02-13T01:16:37.318Z,43.60
2023-02-13T01:19:07.158Z,45.20
2023-02-13T01:21:37.170Z,41.20
2023-02-13T01:24:07.285Z,40.20
2023-02-13T01:26:37.306Z,39.80
2023-02-13T01:29:08.260Z,34.40
2023-02-13T01:31:40.446Z,37.10
2023-02-13T01:34:10.337Z,38.00
2023-02-13T01:36:39.840Z,33.30
2023-02-13T01:39:12.689Z,32.90
2023-02-13T01:41:42.644Z,30.90
2023-02-13T01:47:00.607Z,44.00
2023-02-13T01:49:30.075Z,41.40
2023-02-13T01:52:00.795Z,42.40
2023-02-13T01:54:35.689Z,38.60
2023-02-13T01:57:21.338Z,43.70
2023-02-13T02:00:08.652Z,35.10
2023-02-13T02:02:59.408Z,42.90
2023-02-13T02:05:33.628Z,36.00
2023-02-13T02:08:07.234Z,43.60
2023-02-13T02:10:39.614Z,37.30
2023-02-13T02:13:18.903Z,35.30
2023-02-13T02:15:50.276Z,40.30
2023-02-13T02:18:24.596Z,42.30
2023-02-13T02:21:11.403Z,41.30
2023-02-13T02:24:16.231Z,40.70
2023-02-13T02:27:11.305Z,39.50
2023-02-13T02:30:00.746Z,41.00
2023-02-13T02:32:54.037Z,32.00
2023-02-13T02:35:45.193Z,41.30
2023-02-13T02:38:30.900Z,40.50
2023-02-13T02:41:43.632Z,38.90
2023-02-13T02:44:49.305Z,39.90
2023-02-13T02:47:50.375Z,42.00
2023-02-13T02:50:42.871Z,29.40
2023-02-13T02:53:41.462Z,40.40
2023-02-13T02:56:44.071Z,35.10
2023-02-13T02:59:37.939Z,33.80
2023-02-13T03:02:49.735Z,41.70
2023-02-13T03:05:50.672Z,35.60
2023-02-13T03:08:40.448Z,32.90
2023-02-13T03:11:29.602Z,35.80
2023-02-13T03:14:04.454Z,37.10
2023-02-13T03:16:54.026Z,41.30
2023-02-13T03:19:55.780Z,40.80
2023-02-13T03:22:37.974Z,41.10
2023-02-13T03:25:35.862Z,41.60
2023-02-13T03:28:31.925Z,36.20
2023-02-13T03:31:22.160Z,38.60
2023-02-13T03:34:01.915Z,38.00
2023-02-13T03:37:16.724Z,36.30
2023-02-13T03:40:13.825Z,35.40
2023-02-13T03:42:49.901Z,33.00
2023-02-13T03:45:48.982Z,28.30
2023-02-13T03:48:42.348Z,31.30
2023-02-13T03:51:15.118Z,39.00
2023-02-13T03:53:49.150Z,40.30
2023-02-13T03:56:39.960Z,46.40
2023-02-13T03:59:21.143Z,45.30
2023-02-13T04:02:18.411Z,42.90
2023-02-13T04:05:10.094Z,39.20
2023-02-13T04:07:40.035Z,42.40
2023-02-13T04:10:15.632Z,40.60
2023-02-13T04:12:51.955Z,35.20
2023-02-13T04:15:42.973Z,37.10
2023-02-13T04:18:21.853Z,32.20
2023-02-13T04:20:51.680Z,31.50
2023-02-13T04:23:22.215Z,36.40
2023-02-13T04:25:56.130Z,40.90
2023-02-13T04:28:26.034Z,30.20
2023-02-13T04:30:55.930Z,35.30
2023-02-13T04:33:26.260Z,34.60
2023-02-13T04:35:55.154Z,39.30
2023-02-13T04:38:24.884Z,40.70
2023-02-13T04:40:54.506Z,42.30
2023-02-13T04:43:24.079Z,46.20
2023-02-13T04:45:53.508Z,45.10
2023-02-13T04:48:22.772Z,41.40
2023-02-13T04:50:52.184Z,40.60
2023-02-13T04:53:22.054Z,42.10
2023-02-13T04:55:52.097Z,46.20
2023-02-13T04:58:20.887Z,37.10
2023-02-13T05:00:50.421Z,41.10
2023-02-13T05:03:19.642Z,39.70
2023-02-13T05:05:49.870Z,41.10
2023-02-13T05:08:19.175Z,39.10
2023-02-13T05:23:09.785Z,57.70
2023-02-13T05:25:42.284Z,45.70
2023-02-13T05:28:30.262Z,43.40
2023-02-13T05:31:01.071Z,50.90
2023-02-13T05:33:30.296Z,42.80
2023-02-13T05:35:59.636Z,38.10
2023-02-13T05:38:28.439Z,37.90
2023-02-13T05:41:01.365Z,39.10
2023-02-13T05:43:31.032Z,42.70
2023-02-13T05:46:07.553Z,37.90
2023-02-13T05:48:37.202Z,42.90
2023-02-13T05:51:07.019Z,60.40
2023-02-13T05:53:36.842Z,46.20
2023-02-13T05:56:07.058Z,48.10
2023-02-13T05:58:36.037Z,50.40
2023-02-13T06:01:05.841Z,55.90
2023-02-13T06:03:34.882Z,53.40
2023-02-13T06:06:03.736Z,61.40
2023-02-13T06:08:32.504Z,68.00
2023-02-13T06:11:01.901Z,59.90
2023-02-13T06:13:31.720Z,59.10
2023-02-13T06:16:00.962Z,53.80
2023-02-13T06:18:30.258Z,47.50
2023-02-13T06:21:00.046Z,40.40
2023-02-13T06:23:29.326Z,36.40
2023-02-13T06:26:02.775Z,41.10
2023-02-13T06:28:31.870Z,44.80
2023-02-13T06:31:01.563Z,43.10
2023-02-13T06:33:30.799Z,32.90
2023-02-13T06:36:00.550Z,42.10
2023-02-13T06:38:29.451Z,45.40
2023-02-13T06:41:02.457Z,48.30
2023-02-13T06:43:31.516Z,44.90
2023-02-13T06:46:00.140Z,45.70
2023-02-13T06:48:29.913Z,57.40
2023-02-13T06:50:59.139Z,53.90
2023-02-13T06:53:30.515Z,53.00
2023-02-13T06:55:59.956Z,46.90
2023-02-13T06:58:28.770Z,52.40
2023-02-13T07:00:57.879Z,55.10
2023-02-13T07:03:27.157Z,60.40
2023-02-13T07:05:57.292Z,59.60
2023-02-13T07:08:26.175Z,73.10
2023-02-13T07:10:56.036Z,71.90
2023-02-13T07:13:25.475Z,70.90
2023-02-13T07:15:54.149Z,66.50
2023-02-13T07:18:23.149Z,57.90
2023-02-13T07:20:52.029Z,63.50
2023-02-13T07:23:20.932Z,53.50
2023-02-13T07:25:49.930Z,59.30
2023-02-13T07:28:19.164Z,61.20
2023-02-13T07:30:48.486Z,67.60
2023-02-13T07:33:17.624Z,62.20
2023-02-13T07:35:51.572Z,62.00
2023-02-13T07:38:20.616Z,55.30
2023-02-13T07:40:49.301Z,74.90
2023-02-13T07:43:18.096Z,76.40
2023-02-13T07:45:47.402Z,78.10
2023-02-13T07:48:16.079Z,75.00
2023-02-13T07:50:45.381Z,73.10
2023-02-13T07:53:14.271Z,77.90
2023-02-13T07:55:42.977Z,85.70
2023-02-13T07:58:11.846Z,66.80
2023-02-13T08:00:40.642Z,57.00
2023-02-13T08:03:10.662Z,70.20
2023-02-13T08:05:41.714Z,66.50
2023-02-13T08:08:10.306Z,71.10
2023-02-13T08:10:59.747Z,81.70
2023-02-13T08:13:29.662Z,80.10
2023-02-13T08:15:59.224Z,74.40
2023-02-13T08:18:28.363Z,76.40
2023-02-13T08:20:57.458Z,73.70
2023-02-13T08:23:26.561Z,73.10
2023-02-13T08:25:55.958Z,80.10
2023-02-13T08:28:24.811Z,77.30
2023-02-13T08:30:54.066Z,67.30
2023-02-13T08:33:22.820Z,63.10
2023-02-13T08:35:51.513Z,59.60
2023-02-13T08:38:21.843Z,58.40
2023-02-13T08:43:18.800Z,69.10
2023-02-13T08:45:47.827Z,59.20
2023-02-13T08:48:16.776Z,60.50
2023-02-13T08:50:45.689Z,61.00
2023-02-13T08:53:15.070Z,49.00
2023-02-13T08:55:43.866Z,52.40
2023-02-13T08:58:13.905Z,53.20
2023-02-13T09:03:11.558Z,46.50
2023-02-13T09:05:40.855Z,42.30
2023-02-13T09:08:12.001Z,43.50
2023-02-13T09:10:44.169Z,40.00
2023-02-13T09:13:13.265Z,41.20
2023-02-13T09:15:42.496Z,42.70
2023-02-13T09:18:11.345Z,42.70
2023-02-13T09:20:39.930Z,41.60
2023-02-13T09:23:08.613Z,39.90
2023-02-13T09:25:38.462Z,47.10
2023-02-13T09:28:07.144Z,43.70
2023-02-13T09:30:36.175Z,48.00
2023-02-13T09:33:12.532Z,46.30
2023-02-13T09:35:43.021Z,44.50
2023-02-13T09:38:12.466Z,44.20
2023-02-13T09:40:47.239Z,42.70
2023-02-13T09:43:30.791Z,42.50
2023-02-13T09:46:05.599Z,35.60
2023-02-13T09:48:38.422Z,36.00
2023-02-13T09:51:07.481Z,31.80
2023-02-13T09:53:38.600Z,39.70
2023-02-13T09:56:17.910Z,42.30
2023-02-13T09:58:58.112Z,43.30
2023-02-13T10:01:44.527Z,43.20
2023-02-13T10:04:30.095Z,40.40
2023-02-13T10:07:20.392Z,47.50
2023-02-13T10:10:19.690Z,43.40
2023-02-13T10:12:54.133Z,50.30
2023-02-13T10:15:42.299Z,52.10
2023-02-13T10:18:16.770Z,50.20
2023-02-13T10:21:01.219Z,45.50
2023-02-13T10:23:45.084Z,41.50
2023-02-13T10:26:24.298Z,42.90
2023-02-13T10:29:24.123Z,44.70
2023-02-13T10:34:29.030Z,43.30
2023-02-13T10:36:58.165Z,39.30
2023-02-13T10:39:30.439Z,38.80
2023-02-13T10:42:20.532Z,34.80
2023-02-13T10:47:48.211Z,47.40
2023-02-13T10:51:03.692Z,45.40
2023-02-13T10:54:00.942Z,42.30
2023-02-13T10:56:42.221Z,45.50
2023-02-13T10:59:23.089Z,42.40
2023-02-13T11:02:00.229Z,41.30
2023-02-13T11:04:30.059Z,47.50
2023-02-13T11:07:04.778Z,41.80
2023-02-13T11:09:40.257Z,41.00
2023-02-13T11:12:33.406Z,35.80
2023-02-13T11:15:08.966Z,31.70
2023-02-13T11:17:44.369Z,36.10
2023-02-13T11:20:44.728Z,35.90
2023-02-13T11:23:25.913Z,35.90
2023-02-13T11:26:20.400Z,37.70
2023-02-13T11:28:58.593Z,45.00
2023-02-13T11:31:37.278Z,38.30
2023-02-13T11:34:27.408Z,42.10
2023-02-13T11:37:13.933Z,42.40
2023-02-13T11:39:44.545Z,40.60
2023-02-13T11:42:23.170Z,32.10
2023-02-13T11:44:56.159Z,38.30
2023-02-13T11:47:39.071Z,30.20
2023-02-13T11:50:21.132Z,30.10
2023-02-13T11:53:00.632Z,31.50
2023-02-13T11:55:38.502Z,36.30
2023-02-13T11:58:16.353Z,28.50
2023-02-13T12:00:45.823Z,27.10
2023-02-13T12:03:20.927Z,27.60
2023-02-13T12:06:04.894Z,37.20
2023-02-13T12:08:36.452Z,33.90
2023-02-13T12:11:24.083Z,38.90
2023-02-13T12:13:53.372Z,39.70
2023-02-13T12:16:30.820Z,40.80
2023-02-13T12:19:03.991Z,38.50
2023-02-13T12:21:42.375Z,37.10
2023-02-13T12:24:14.041Z,36.50
2023-02-13T12:27:26.538Z,36.70
2023-02-13T12:30:07.250Z,37.10
2023-02-13T12:32:59.663Z,37.60
2023-02-13T12:35:34.180Z,39.10
2023-02-13T12:38:44.024Z,38.40
2023-02-13T12:44:22.862Z,36.50
2023-02-13T12:46:53.189Z,35.20
2023-02-13T12:49:33.856Z,30.00
2023-02-13T12:52:14.827Z,33.60
2023-02-13T12:55:09.529Z,32.30
2023-02-13T12:57:50.195Z,32.90
2023-02-13T13:00:53.814Z,35.80
2023-02-13T13:03:47.056Z,32.30
2023-02-13T13:06:39.299Z,29.90
2023-02-13T13:09:19.986Z,30.90
2023-02-13T13:12:00.734Z,32.00
2023-02-13T13:14:29.399Z,27.40
2023-02-13T13:17:03.737Z,28.20
2023-02-13T13:19:57.307Z,26.30
2023-02-13T13:23:07.866Z,25.30
2023-02-13T13:25:55.381Z,32.10
2023-02-13T13:28:30.158Z,24.40
2023-02-13T13:30:59.967Z,25.60
2023-02-13T13:33:28.841Z,27.10
2023-02-13T13:36:22.160Z,27.10
2023-02-13T13:39:24.908Z,34.00
2023-02-13T13:42:28.790Z,32.80
2023-02-13T13:45:10.841Z,32.00
2023-02-13T13:48:14.693Z,27.40
2023-02-13T13:50:46.041Z,30.50
2023-02-13T13:53:20.702Z,30.50
2023-02-13T13:56:06.068Z,31.30
2023-02-13T13:58:43.539Z,25.90
2023-02-13T14:01:15.256Z,25.60
2023-02-13T14:03:58.826Z,28.20
2023-02-13T14:06:46.058Z,25.20
2023-02-13T14:09:27.123Z,31.90
2023-02-13T14:11:58.744Z,28.00
2023-02-13T14:14:30.841Z,29.60
2023-02-13T14:17:04.648Z,28.30
2023-02-13T14:19:37.943Z,27.50
2023-02-13T14:22:25.055Z,26.60
2023-02-13T14:25:24.905Z,28.10
2023-02-13T14:27:59.867Z,23.80
2023-02-13T14:30:34.438Z,26.30
2023-02-13T14:33:09.136Z,24.80
2023-02-13T14:35:39.086Z,25.10
2023-02-13T14:40:53.031Z,16.90
2023-02-13T14:43:33.910Z,21.90
2023-02-13T14:46:27.522Z,27.40
2023-02-13T14:49:08.289Z,32.80
2023-02-13T14:51:41.577Z,31.10
2023-02-13T14:54:21.999Z,25.60
2023-02-13T14:56:53.895Z,25.40
2023-02-13T14:59:32.918Z,27.30
2023-02-13T15:02:17.653Z,24.40
2023-02-13T15:04:55.614Z,28.90
2023-02-13T15:07:28.787Z,29.30
2023-02-13T15:10:23.845Z,31.20
2023-02-13T15:13:01.046Z,31.00
2023-02-13T15:15:35.491Z,32.00
2023-02-13T15:18:21.050Z,33.90
2023-02-13T15:20:51.159Z,31.70
2023-02-13T15:23:31.588Z,30.00
2023-02-13T15:26:02.855Z,28.50
2023-02-13T15:28:32.869Z,33.70
2023-02-13T15:31:23.507Z,33.00
2023-02-13T15:33:52.472Z,29.60
2023-02-13T15:36:26.653Z,31.10
2023-02-13T15:39:09.705Z,34.20
2023-02-13T15:41:42.899Z,32.30
2023-02-13T15:44:19.859Z,34.00
2023-02-13T15:46:52.092Z,32.40
2023-02-13T15:49:24.477Z,36.80
2023-02-13T15:52:07.020Z,32.00
2023-02-13T15:54:36.221Z,34.50
2023-02-13T15:57:07.356Z,37.40
2023-02-13T15:59:38.810Z,40.20
2023-02-13T16:02:15.683Z,36.70
2023-02-13T16:04:45.851Z,36.10
2023-02-13T16:09:43.589Z,36.50
2023-02-13T16:12:14.934Z,35.20
2023-02-13T16:15:06.257Z,33.90
2023-02-13T16:17:40.385Z,39.00
2023-02-13T16:20:12.031Z,37.30
2023-02-13T16:22:51.873Z,38.80
2023-02-13T16:25:36.672Z,36.00
2023-02-13T16:28:26.028Z,39.90
2023-02-13T16:31:03.604Z,39.10
2023-02-13T16:33:38.098Z,41.80
2023-02-13T16:36:09.679Z,36.40
2023-02-13T16:38:40.043Z,42.20
2023-02-13T16:41:30.860Z,40.20
2023-02-13T16:44:00.615Z,50.30
2023-02-13T16:46:32.700Z,41.10
2023-02-13T16:49:10.405Z,41.10
2023-02-13T16:51:38.971Z,38.40
2023-02-13T16:54:07.769Z,39.50
2023-02-13T16:56:43.191Z,40.70
2023-02-13T16:59:17.771Z,39.10
2023-02-13T17:01:46.380Z,41.90
2023-02-13T17:04:25.038Z,45.60
2023-02-13T17:06:56.777Z,44.50
2023-02-13T17:09:25.464Z,44.50
2023-02-13T17:11:55.169Z,46.40
2023-02-13T17:14:23.750Z,42.60
2023-02-13T17:16:52.381Z,41.20
2023-02-13T17:19:20.815Z,41.00
2023-02-13T17:21:49.398Z,37.60
2023-02-13T17:24:18.702Z,38.90
2023-02-13T17:26:47.177Z,39.80
2023-02-13T17:29:15.762Z,43.60
2023-02-13T17:31:44.642Z,48.20
2023-02-13T17:34:13.267Z,46.20
2023-02-13T17:36:41.733Z,53.90
2023-02-13T17:39:10.312Z,78.80
2023-02-13T17:41:38.985Z,65.80
2023-02-13T17:44:07.783Z,85.00
2023-02-13T17:46:36.457Z,85.90
2023-02-13T17:49:04.938Z,82.40
2023-02-13T17:51:33.620Z,95.10
2023-02-13T17:54:02.315Z,76.60
2023-02-13T17:56:30.993Z,82.50
2023-02-13T17:58:59.764Z,89.60
2023-02-13T18:01:28.425Z,76.80
2023-02-13T18:03:56.833Z,90.60
2023-02-13T18:06:25.666Z,75.20
2023-02-13T18:08:54.078Z,76.90
2023-02-13T18:11:22.593Z,91.40
2023-02-13T18:13:51.282Z,92.70
2023-02-13T18:16:22.729Z,90.20
2023-02-13T18:18:52.535Z,94.00
2023-02-13T18:21:24.091Z,86.70
2023-02-13T18:23:53.902Z,82.20
2023-02-13T18:26:22.386Z,72.90
2023-02-13T18:28:52.612Z,70.40
2023-02-13T18:31:21.412Z,69.10
2023-02-13T18:33:50.076Z,67.40
2023-02-13T18:36:18.764Z,66.30
2023-02-13T18:38:47.349Z,63.30
2023-02-13T18:41:15.937Z,53.70
2023-02-13T18:43:44.368Z,61.00
2023-02-13T18:46:12.929Z,59.00
2023-02-13T18:48:41.887Z,75.10
2023-02-13T18:51:10.369Z,84.30
2023-02-13T18:53:38.933Z,86.00
2023-02-13T18:56:10.066Z,92.00
2023-02-13T18:58:38.574Z,86.60
2023-02-13T19:01:12.506Z,89.00
2023-02-13T19:03:41.475Z,76.00
2023-02-13T19:06:13.539Z,71.90
2023-02-13T19:08:42.129Z,79.90
2023-02-13T19:11:14.620Z,118.50
2023-02-13T19:13:44.346Z,108.10
2023-02-13T19:16:20.012Z,108.10
2023-02-13T19:18:54.483Z,124.20
2023-02-13T19:21:26.055Z,99.70
2023-02-13T19:23:54.922Z,117.00
2023-02-13T19:26:26.781Z,110.00
2023-02-13T19:28:57.226Z,96.50
2023-02-13T19:31:28.497Z,97.90
2023-02-13T19:33:57.552Z,94.60
2023-02-13T19:36:27.156Z,87.30
2023-02-13T19:38:58.755Z,91.10
2023-02-13T19:41:29.297Z,91.80
2023-02-13T19:43:57.820Z,83.40
2023-02-13T19:46:31.797Z,92.20
2023-02-13T19:49:01.237Z,76.10
2023-02-13T19:51:31.877Z,93.70
2023-02-13T19:54:06.801Z,99.90
2023-02-13T19:56:39.374Z,99.20
2023-02-13T19:59:12.423Z,94.60
2023-02-13T20:01:43.150Z,96.80
2023-02-13T20:04:12.087Z,96.20
2023-02-13T20:06:40.674Z,96.80
2023-02-13T20:09:13.822Z,93.20
2023-02-13T20:11:43.824Z,83.20
2023-02-13T20:14:15.292Z,72.50
2023-02-13T20:16:46.690Z,71.10
2023-02-13T20:19:15.568Z,67.80
2023-02-13T20:21:44.355Z,70.10
2023-02-13T20:24:13.347Z,89.80
2023-02-13T20:26:42.034Z,85.60
2023-02-13T20:29:10.714Z,93.30
2023-02-13T20:31:41.868Z,85.30
2023-02-13T20:34:11.155Z,103.90
2023-02-13T20:36:39.656Z,93.30
2023-02-13T20:39:08.547Z,94.10
2023-02-13T20:41:38.341Z,97.70
2023-02-13T20:44:12.145Z,113.70
2023-02-13T20:46:40.724Z,99.30
2023-02-13T20:49:11.577Z,85.50
2023-02-13T20:51:40.161Z,76.80
2023-02-13T20:54:10.371Z,72.40
2023-02-13T20:56:38.958Z,74.90
2023-02-13T20:59:07.742Z,75.30
2023-02-13T21:01:41.854Z,89.60
2023-02-13T21:04:13.947Z,103.30
2023-02-13T21:06:42.704Z,115.00
2023-02-13T21:09:12.413Z,106.50
2023-02-13T21:11:44.762Z,115.60
2023-02-13T21:14:14.401Z,99.20
2023-02-13T21:16:43.712Z,93.90
2023-02-13T21:19:17.194Z,74.60
2023-02-13T21:21:46.384Z,74.30
2023-02-13T21:24:18.876Z,71.90
2023-02-13T21:26:48.842Z,66.30
2023-02-13T21:29:17.466Z,63.10
2023-02-13T21:31:48.047Z,73.50
2023-02-13T21:36:47.496Z,74.10
2023-02-13T21:39:16.829Z,77.50
2023-02-13T21:41:46.851Z,74.60
2023-02-13T21:44:16.550Z,70.30
2023-02-13T21:46:46.095Z,72.80
2023-02-13T21:49:17.671Z,59.70
2023-02-13T21:51:46.826Z,65.90
2023-02-13T21:54:15.895Z,81.20
2023-02-13T21:56:44.980Z,78.30
2023-02-13T21:59:15.926Z,78.10
2023-02-13T22:01:50.578Z,84.20
2023-02-13T22:04:19.262Z,77.90
2023-02-13T22:06:51.443Z,82.10
2023-02-13T22:09:21.798Z,69.40
2023-02-13T22:11:52.980Z,63.70
2023-02-13T22:14:22.703Z,65.60
2023-02-13T22:16:52.762Z,63.50
2023-02-13T22:21:50.913Z,72.20
2023-02-13T22:24:20.004Z,80.20
2023-02-13T22:26:48.795Z,80.20
2023-02-13T22:29:18.905Z,76.90
2023-02-13T22:31:47.737Z,64.60
2023-02-13T22:34:16.693Z,59.90
2023-02-13T22:36:45.514Z,61.30
2023-02-13T22:39:14.088Z,62.70
2023-02-13T22:41:46.344Z,59.30
2023-02-13T22:44:15.059Z,63.30
2023-02-13T22:46:45.948Z,84.40
2023-02-13T22:49:14.952Z,83.50
2023-02-13T22:51:43.621Z,89.40
2023-02-13T22:54:12.416Z,81.60
2023-02-13T22:56:41.079Z,81.00
2023-02-13T22:59:12.285Z,95.30
2023-02-13T23:01:41.058Z,90.90
2023-02-13T23:04:11.081Z,90.10
2023-02-13T23:06:39.943Z,89.70
2023-02-13T23:09:09.200Z,84.20
2023-02-13T23:11:56.452Z,87.60
2023-02-13T23:14:25.906Z,74.00
2023-02-13T23:17:13.074Z,77.20
2023-02-13T23:19:41.765Z,75.70
2023-02-13T23:22:13.936Z,70.40
2023-02-13T23:24:43.874Z,73.40
2023-02-13T23:27:13.353Z,74.40
2023-02-13T23:29:42.229Z,74.80
2023-02-13T23:32:11.051Z,67.90
2023-02-13T23:34:40.148Z,70.30
2023-02-13T23:37:09.546Z,74.30
2023-02-13T23:39:39.344Z,83.70
2023-02-13T23:42:08.407Z,68.80
2023-02-13T23:44:37.484Z,85.20
2023-02-13T23:47:06.601Z,91.40
2023-02-13T23:49:35.385Z,78.80
2023-02-13T23:52:04.625Z,81.80
2023-02-13T23:54:35.417Z,84.70
2023-02-13T23:59:34.215Z,79.90
